Array
(
    [0] => p
    [1] => TAF-100
)
- বাংলা English

*No Signal for the Maritime ports and coastal areas. <

TAF

TAF VGHS 192300Z 2000/2106 14005KT 1800BR SCT100
TEMPO 2000/2003 00000KT 1200BR BKN007
BECMG 2006/2008 22006KT 3500HZ FEW015
BECMG 2020/2022 11004KT 2000BR SCT100
TEMPO 2023/2103 00000KT 1200BR BKN007
BECMG 2104/2106 14005KT 2500HZ FEW015=

TAF VGEG 192300Z 2000/2106 00000KT 2000 BR SCT012
  BECMG 2004/2006 27010KT 5000 HZ SCT018
  BECMG 2014/2016 00000KT 3500 HZ SCT016=

TAF VGSY 190400Z 1906/2012 13005KT 4500 HZ SCT012
BECMG 1918/1920 04004KT 3000 HZ SCT012
BECMG 1923/2001 05004KT 2000 BR SCT012 BKN100
BECMG 2001/2003 09005KT 2500 BR SCT015=